Latest Flight | Flight Log | Data Trends | Login | Join FlightData.com!
Date Range From To
Export:
Flight Log - N461SR - Click on row to view flight. Click on header to sort.
Date Origin Dest Depart Arrive Hobbs Flight Time Flight Distance Fuel Fuel/hr Fuel/nm Altitude Gnd Speed
Mon, Oct 14, 2013 KCPS KHEF 16:30 19:54 3.39 hrs 3.12 hrs 604.39 nm 59.50 gal 17.54 gal/hr 0.10 gal/nm 21016 msl 194 kts
Mon, Oct 14, 2013     16:08 16:08 0.01 hrs 0.00 hrs 0.00 nm 0.00 gal 0.00 gal/hr 0.00 gal/nm 0 msl 0 kts
Tue, Oct 1, 2013 KHEF KCPS 19:54 23:46 3.86 hrs 3.49 hrs 598.49 nm 64.50 gal 16.71 gal/hr 0.11 gal/nm 11959 msl 171 kts
Tue, Oct 1, 2013 KHEF KHEF 19:40 19:40 0 hrs 0.00 hrs 0.00 nm 0.00 gal 0.00 gal/hr 0.00 gal/nm 0 msl 0 kts
Tue, Oct 1, 2013 KHEF KHEF 17:07 17:19 0.21 hrs 0.00 hrs 0.00 nm 0.60 gal 2.93 gal/hr 0.00 gal/nm 0 msl 0 kts
Tue, Oct 1, 2013     17:05 17:05 0 hrs 0.00 hrs 0.00 nm 0.00 gal 0.00 gal/hr 0.00 gal/nm 0 msl 0 kts
Sat, Sep 28, 2013     15:51 15:52 0.01 hrs 0.00 hrs 0.00 nm 0.00 gal 0.00 gal/hr 0.00 gal/nm 0 msl 0 kts
Sun, Sep 8, 2013 KFCI KHEF 13:57 15:58 2.02 hrs 1.65 hrs 208.51 nm 26.70 gal 13.25 gal/hr 0.13 gal/nm 5996 msl 126 kts
Sun, Sep 8, 2013     13:35 13:36 0.02 hrs 0.00 hrs 0.00 nm 0.00 gal 0.00 gal/hr 0.00 gal/nm 0 msl 0 kts
Fri, Sep 6, 2013 KHEF KFCI 20:47 22:17 1.5 hrs 1.25 hrs 223.11 nm 31.50 gal 20.98 gal/hr 0.14 gal/nm 24022 msl 179 kts
Fri, Sep 6, 2013 KHEF KHEF 20:42 20:47 0.09 hrs 0.00 hrs 0.00 nm 0.20 gal 2.31 gal/hr 0.00 gal/nm 0 msl 0 kts
Fri, Sep 6, 2013 KHEF KHEF 20:31 20:31 0.01 hrs 0.00 hrs 0.00 nm 0.00 gal 0.00 gal/hr 0.00 gal/nm 0 msl 0 kts
Fri, Sep 6, 2013 KHEF KHEF 20:23 20:24 0.01 hrs 0.00 hrs 0.00 nm 0.00 gal 0.00 gal/hr 0.00 gal/nm 0 msl 0 kts
Fri, Sep 6, 2013 KHEF KHEF 20:19 20:22 0.05 hrs 0.00 hrs 0.00 nm 0.00 gal 0.00 gal/hr 0.00 gal/nm 0 msl 0 kts
Fri, Sep 6, 2013 KHEF KHEF 15:21 15:29 0.13 hrs 0.00 hrs 0.00 nm 0.30 gal 2.34 gal/hr 0.00 gal/nm 0 msl 0 kts
Fri, Sep 6, 2013 KHEF KHEF 15:16 15:20 0.06 hrs 0.00 hrs 0.00 nm 1.10 gal 18.33 gal/hr 0.00 gal/nm 0 msl 0 kts
Fri, Sep 6, 2013 KHEF KHEF 14:53 15:03 0.16 hrs 0.00 hrs 0.00 nm 0.40 gal 2.53 gal/hr 0.00 gal/nm 0 msl 0 kts
Thu, Sep 5, 2013 KHEF KHEF 20:40 20:51 0.18 hrs 0.00 hrs 0.00 nm 0.00 gal 0.00 gal/hr 0.00 gal/nm 0 msl 0 kts
Thu, Sep 5, 2013 KHEF KHEF 20:34 20:37 0.06 hrs 0.00 hrs 0.00 nm 0.00 gal 0.00 gal/hr 0.00 gal/nm 0 msl 0 kts
Thu, Sep 5, 2013     20:30 20:31 0.02 hrs 0.00 hrs 0.00 nm 0.00 gal 0.00 gal/hr 0.00 gal/nm 0 msl 0 kts
Thu, Sep 5, 2013     20:26 20:26 0.01 hrs 0.00 hrs 0.00 nm 0.00 gal 0.00 gal/hr 0.00 gal/nm 0 msl 0 kts
Thu, Sep 5, 2013     20:13 20:15 0.04 hrs 0.00 hrs 0.00 nm 0.00 gal 0.00 gal/hr 0.00 gal/nm 0 msl 0 kts
Thu, Sep 5, 2013     20:11 20:12 0.01 hrs 0.00 hrs 0.00 nm 0.00 gal 0.00 gal/hr 0.00 gal/nm 0 msl 0 kts
Thu, Sep 5, 2013     20:01 20:07 0.11 hrs 0.00 hrs 0.00 nm 0.00 gal 0.00 gal/hr 0.00 gal/nm 0 msl 0 kts
Thu, Sep 5, 2013     19:53 19:58 0.08 hrs 0.00 hrs 0.00 nm 0.00 gal 0.00 gal/hr 0.00 gal/nm 0 msl 0 kts
Thu, Sep 5, 2013     19:48 19:52 0.06 hrs 0.00 hrs 0.00 nm 0.00 gal 0.00 gal/hr 0.00 gal/nm 0 msl 0 kts
Thu, Sep 5, 2013     19:41 19:42 0.02 hrs 0.00 hrs 0.00 nm 0.00 gal 0.00 gal/hr 0.00 gal/nm 0 msl 0 kts
Thu, Sep 5, 2013     19:36 19:37 0.01 hrs 0.00 hrs 0.00 nm 0.00 gal 0.00 gal/hr 0.00 gal/nm 0 msl 0 kts
Thu, Aug 8, 2013 KHEF KHEF 13:16 13:28 0.2 hrs 0.00 hrs 0.00 nm 0.00 gal 0.00 gal/hr 0.00 gal/nm 0 msl 0 kts
Thu, Aug 8, 2013     13:03 13:03 0.02 hrs 0.00 hrs 0.00 nm 0.00 gal 0.00 gal/hr 0.00 gal/nm 0 msl 0 kts
Tue, Aug 6, 2013     12:15 12:16 0.02 hrs 0.00 hrs 0.00 nm 0.00 gal 0.00 gal/hr 0.00 gal/nm 0 msl 0 kts
Mon, Aug 5, 2013 KCPS KHEF 13:18 16:28 3.16 hrs 2.92 hrs 615.65 nm 54.50 gal 17.25 gal/hr 0.09 gal/nm 18991 msl 211 kts
Mon, Aug 5, 2013     13:04 13:04 0.01 hrs 0.00 hrs 0.00 nm 0.00 gal 0.00 gal/hr 0.00 gal/nm 0 msl 0 kts
Mon, Jul 29, 2013     15:17 15:18 0.02 hrs 0.00 hrs 0.00 nm 0.00 gal 0.00 gal/hr 0.00 gal/nm 0 msl 0 kts
Mon, Jul 29, 2013     15:16 15:16 0 hrs 0.00 hrs 0.00 nm 0.00 gal 0.00 gal/hr 0.00 gal/nm 0 msl 0 kts
Mon, Jul 29, 2013     15:00 15:15 0.25 hrs 0.00 hrs 0.00 nm 0.00 gal 0.00 gal/hr 0.00 gal/nm 0 msl 0 kts
Mon, Jul 29, 2013     14:58 14:59 0.01 hrs 0.00 hrs 0.00 nm 0.00 gal 0.00 gal/hr 0.00 gal/nm 0 msl 0 kts
Mon, Jul 29, 2013     14:56 14:56 0.02 hrs 0.00 hrs 0.00 nm 0.00 gal 0.00 gal/hr 0.00 gal/nm 0 msl 0 kts
Mon, Jul 29, 2013     14:44 14:51 0.12 hrs 0.00 hrs 0.00 nm 0.00 gal 0.00 gal/hr 0.00 gal/nm 0 msl 0 kts
Mon, Jul 29, 2013     14:33 14:43 0.17 hrs 0.00 hrs 0.00 nm 0.00 gal 0.00 gal/hr 0.00 gal/nm 0 msl 0 kts
Mon, Jul 29, 2013     14:21 14:33 0.2 hrs 0.00 hrs 0.00 nm 0.00 gal 0.00 gal/hr 0.00 gal/nm 0 msl 0 kts
Mon, Jul 29, 2013 X34 X34 13:58 14:03 0.09 hrs 0.00 hrs 0.00 nm 0.00 gal 0.00 gal/hr 0.00 gal/nm 0 msl 0 kts
Mon, Jul 29, 2013     13:47 13:55 0.15 hrs 0.00 hrs 0.00 nm 0.00 gal 0.00 gal/hr 0.00 gal/nm 0 msl 0 kts
Mon, Jul 29, 2013     13:46 13:46 0.01 hrs 0.00 hrs 0.00 nm 0.00 gal 0.00 gal/hr 0.00 gal/nm 0 msl 0 kts
Mon, Jul 29, 2013 X34 X34 13:40 13:45 0.1 hrs 0.00 hrs 0.00 nm 0.00 gal 0.00 gal/hr 0.00 gal/nm 0 msl 0 kts
Mon, Jul 29, 2013     11:47 11:53 0.1 hrs 0.00 hrs 0.00 nm 0.00 gal 0.00 gal/hr 0.00 gal/nm 0 msl 0 kts
Mon, Jul 29, 2013     11:46 11:46 0.01 hrs 0.00 hrs 0.00 nm 0.00 gal 0.00 gal/hr 0.00 gal/nm 0 msl 0 kts
Mon, Jul 29, 2013     11:32 11:35 0.06 hrs 0.00 hrs 0.00 nm 0.00 gal 0.00 gal/hr 0.00 gal/nm 0 msl 0 kts
Mon, Jul 29, 2013     11:31 11:31 0.01 hrs 0.00 hrs 0.00 nm 0.00 gal 0.00 gal/hr 0.00 gal/nm 0 msl 0 kts
Mon, Jul 29, 2013     11:22 11:30 0.15 hrs 0.00 hrs 0.00 nm 0.00 gal 0.00 gal/hr 0.00 gal/nm 0 msl 0 kts
Mon, Jul 29, 2013     11:20 11:21 0.01 hrs 0.00 hrs 0.00 nm 0.00 gal 0.00 gal/hr 0.00 gal/nm 0 msl 0 kts
Mon, Jul 29, 2013     11:19 11:20 0.01 hrs 0.00 hrs 0.00 nm 0.00 gal 0.00 gal/hr 0.00 gal/nm 0 msl 0 kts
Mon, Jul 29, 2013     11:19 11:19 0 hrs 0.00 hrs 0.00 nm 0.00 gal 0.00 gal/hr 0.00 gal/nm 0 msl 0 kts
Sun, Jul 28, 2013 KCGI KCPS 21:41 22:33 0.86 hrs 0.58 hrs 87.69 nm 11.30 gal 13.22 gal/hr 0.13 gal/nm 4425 msl 152 kts
Sun, Jul 28, 2013 KCPS KCGI 18:58 20:03 1.08 hrs 0.75 hrs 104.91 nm 13.10 gal 12.19 gal/hr 0.12 gal/nm 3431 msl 139 kts
Sun, Jul 28, 2013     18:35 18:36 0.02 hrs 0.00 hrs 0.00 nm 0.00 gal 0.00 gal/hr 0.00 gal/nm 0 msl 0 kts
Fri, Jul 26, 2013     19:16 19:45 0.49 hrs 0.00 hrs 0.00 nm 0.00 gal 0.00 gal/hr 0.00 gal/nm 0 msl 0 kts
Thu, Jul 25, 2013 KHEF KCPS 23:47 03:35 3.81 hrs 3.41 hrs 595.27 nm 63.90 gal 16.79 gal/hr 0.11 gal/nm 15904 msl 175 kts
Thu, Jul 25, 2013 KHEF KHEF 14:59 15:12 0.21 hrs 0.00 hrs 0.00 nm 0.60 gal 2.86 gal/hr 0.00 gal/nm 0 msl 0 kts
Thu, Jul 25, 2013 KHEF KHEF 14:46 14:52 0.09 hrs 0.00 hrs 0.00 nm 0.00 gal 0.00 gal/hr 0.00 gal/nm 0 msl 0 kts
Thu, Jul 25, 2013 KHEF KHEF 14:34 14:37 0.05 hrs 0.00 hrs 0.00 nm 0.00 gal 0.00 gal/hr 0.00 gal/nm 0 msl 0 kts
Thu, Jul 25, 2013     13:09 16:50 3.69 hrs 0.00 hrs 0.00 nm 0.00 gal 0.00 gal/hr 0.00 gal/nm 0 msl 0 kts
Thu, Jul 25, 2013     12:57 13:07 0.16 hrs 0.00 hrs 0.00 nm 0.00 gal 0.00 gal/hr 0.00 gal/nm 0 msl 0 kts
Thu, Jul 25, 2013     10:41 12:54 2.22 hrs 0.00 hrs 0.00 nm 0.00 gal 0.00 gal/hr 0.00 gal/nm 0 msl 0 kts
Wed, Jul 24, 2013     18:21 10:37 16.27 hrs 0.00 hrs 0.00 nm 0.00 gal 0.00 gal/hr 0.00 gal/nm 0 msl 0 kts
Wed, Jul 24, 2013     17:31 18:04 0.55 hrs 0.00 hrs 0.00 nm 0.00 gal 0.00 gal/hr 0.00 gal/nm 0 msl 0 kts
Wed, Jul 24, 2013 X34 X34 16:42 16:43 0.02 hrs 0.00 hrs 0.00 nm 0.00 gal 0.00 gal/hr 0.00 gal/nm 0 msl 0 kts
Wed, Jul 24, 2013 X34 X34 15:47 15:52 0.09 hrs 0.00 hrs 0.00 nm 0.00 gal 0.00 gal/hr 0.00 gal/nm 0 msl 0 kts
Wed, Jul 24, 2013 X34 X34 15:43 15:46 0.06 hrs 0.00 hrs 0.00 nm 0.00 gal 0.00 gal/hr 0.00 gal/nm 0 msl 0 kts
Wed, Jul 24, 2013     15:41 15:42 0.02 hrs 0.00 hrs 0.00 nm 0.00 gal 0.00 gal/hr 0.00 gal/nm 0 msl 0 kts
Wed, Jul 24, 2013     15:36 15:40 0.07 hrs 0.00 hrs 0.00 nm 0.00 gal 0.00 gal/hr 0.00 gal/nm 0 msl 0 kts
Wed, Jul 24, 2013     15:35 15:36 0 hrs 0.00 hrs 0.00 nm 0.00 gal 0.00 gal/hr 0.00 gal/nm 0 msl 0 kts
Wed, Jul 24, 2013     15:30 15:32 0.04 hrs 0.00 hrs 0.00 nm 0.00 gal 0.00 gal/hr 0.00 gal/nm 0 msl 0 kts
Wed, Jul 24, 2013     15:17 15:27 0.17 hrs 0.00 hrs 0.00 nm 0.00 gal 0.00 gal/hr 0.00 gal/nm 0 msl 0 kts
Wed, Jul 24, 2013     15:03 15:04 0.01 hrs 0.00 hrs 0.00 nm 0.00 gal 0.00 gal/hr 0.00 gal/nm 0 msl 0 kts
Tue, Jul 23, 2013 KHEF KHEF 14:01 14:03 0.03 hrs 0.00 hrs 0.00 nm 0.00 gal 0.00 gal/hr 0.00 gal/nm 0 msl 0 kts
Tue, Jul 23, 2013     13:18 13:18 0.01 hrs 0.00 hrs 0.00 nm 0.00 gal 0.00 gal/hr 0.00 gal/nm 0 msl 0 kts
Mon, Jul 22, 2013 KCPS KHEF 13:55 17:37 3.7 hrs 3.37 hrs 628.51 nm 62.00 gal 16.77 gal/hr 0.10 gal/nm 11054 msl 187 kts
Fri, Jul 19, 2013 KHEF KCPS 13:05 16:56 3.86 hrs 3.55 hrs 597.68 nm 65.50 gal 16.98 gal/hr 0.11 gal/nm 11896 msl 169 kts
Sun, Jul 14, 2013 KCPS KHEF 23:18 03:05 3.78 hrs 3.49 hrs 602.83 nm 63.50 gal 16.81 gal/hr 0.11 gal/nm 18993 msl 173 kts
Sun, Jul 14, 2013 KCPS KCPS 23:09 23:11 0.02 hrs 0.00 hrs 0.00 nm 0.00 gal 0.00 gal/hr 0.00 gal/nm 0 msl 0 kts
Fri, Jul 12, 2013 KHEF KCPS 19:51 23:39 3.8 hrs 3.41 hrs 618.51 nm 65.80 gal 17.30 gal/hr 0.11 gal/nm 18016 msl 181 kts
Fri, Jul 12, 2013     19:31 19:32 0.01 hrs 0.00 hrs 0.00 nm 0.00 gal 0.00 gal/hr 0.00 gal/nm 0 msl 0 kts
Thu, Jul 11, 2013 KHEF KHEF 18:53 19:00 0.12 hrs 0.00 hrs 0.00 nm 0.40 gal 3.48 gal/hr 0.00 gal/nm 0 msl 0 kts
Thu, Jul 11, 2013 KHEF KHEF 15:33 15:41 0.13 hrs 0.00 hrs 0.00 nm 0.50 gal 3.90 gal/hr 0.00 gal/nm 0 msl 0 kts
Thu, Jul 11, 2013 KHEF KHEF 15:28 15:32 0.07 hrs 0.00 hrs 0.00 nm 0.20 gal 2.73 gal/hr 0.00 gal/nm 0 msl 0 kts
Mon, Jul 8, 2013 KCPS KHEF 23:24 02:52 3.48 hrs 3.18 hrs 602.44 nm 57.20 gal 16.45 gal/hr 0.09 gal/nm 20065 msl 190 kts
Sun, Jun 30, 2013 8MO1 KCPS 18:27 20:05 1.63 hrs 1.34 hrs 205.50 nm 26.70 gal 16.38 gal/hr 0.13 gal/nm 11001 msl 153 kts
Sun, Jun 30, 2013     18:08 18:08 0.01 hrs 0.00 hrs 0.00 nm 0.00 gal 0.00 gal/hr 0.00 gal/nm 0 msl 0 kts
Fri, Jun 28, 2013 KCPS 8MO1 19:13 20:44 1.53 hrs 1.17 hrs 196.87 nm 26.20 gal 17.14 gal/hr 0.13 gal/nm 12078 msl 168 kts
Fri, Jun 28, 2013 KHEF KCPS 13:56 18:29 4.56 hrs 4.12 hrs 603.64 nm 75.00 gal 16.46 gal/hr 0.12 gal/nm 12267 msl 147 kts
Sat, Jun 22, 2013 KTGI KHEF 17:41 18:41 1.01 hrs 0.73 hrs 119.39 nm 15.60 gal 15.50 gal/hr 0.13 gal/nm 9708 msl 164 kts
Sat, Jun 22, 2013 KHEF KTGI 14:09 15:55 1.77 hrs 1.35 hrs 190.80 nm 29.20 gal 16.51 gal/hr 0.15 gal/nm 13181 msl 141 kts
Sat, Jun 22, 2013 KHEF KHEF 13:50 14:06 0.28 hrs 0.00 hrs 0.00 nm 0.50 gal 1.80 gal/hr 0.00 gal/nm 0 msl 0 kts
Sat, Jun 22, 2013 KHEF KHEF 13:19 13:20 0.02 hrs 0.00 hrs 0.00 nm 0.00 gal 0.00 gal/hr 0.00 gal/nm 0 msl 0 kts
Fri, May 31, 2013     12:48 12:48 0.01 hrs 0.00 hrs 0.00 nm 0.00 gal 0.00 gal/hr 0.00 gal/nm 0 msl 0 kts
Thu, May 30, 2013 KHEF KHEF 17:43 17:50 0.11 hrs 0.00 hrs 0.00 nm 0.50 gal 4.41 gal/hr 0.00 gal/nm 0 msl 0 kts
Thu, May 30, 2013 KHEF KHEF 16:31 16:40 0.15 hrs 0.00 hrs 0.00 nm 0.00 gal 0.00 gal/hr 0.00 gal/nm 0 msl 0 kts
Thu, May 30, 2013 KHEF KHEF 16:21 16:27 0.1 hrs 0.00 hrs 0.00 nm 0.00 gal 0.00 gal/hr 0.00 gal/nm 0 msl 0 kts
Thu, May 30, 2013 KHEF KHEF 16:14 16:21 0.12 hrs 0.00 hrs 0.00 nm 0.00 gal 0.00 gal/hr 0.00 gal/nm 0 msl 0 kts
Thu, May 30, 2013     16:01 16:03 0.02 hrs 0.00 hrs 0.00 nm 0.00 gal 0.00 gal/hr 0.00 gal/nm 0 msl 0 kts
Thu, May 23, 2013 KHEF KHEF 19:51 20:49 0.96 hrs 0.00 hrs 0.00 nm 0.00 gal 0.00 gal/hr 0.00 gal/nm 312 msl 51 kts
Thu, May 23, 2013     19:30 19:33 0.07 hrs 0.00 hrs 0.00 nm 0.00 gal 0.00 gal/hr 0.00 gal/nm 0 msl 0 kts
Mon, May 20, 2013     19:13 19:13 0.01 hrs 0.00 hrs 0.00 nm 0.00 gal 0.00 gal/hr 0.00 gal/nm 0 msl 0 kts
Mon, May 20, 2013     19:03 19:05 0.03 hrs 0.00 hrs 0.00 nm 0.00 gal 0.00 gal/hr 0.00 gal/nm 0 msl 0 kts
Mon, May 20, 2013     18:59 19:01 0.04 hrs 0.00 hrs 0.00 nm 0.00 gal 0.00 gal/hr 0.00 gal/nm 0 msl 0 kts
Fri, May 17, 2013     18:35 18:38 0.06 hrs 0.00 hrs 0.00 nm 0.00 gal 0.00 gal/hr 0.00 gal/nm 0 msl 0 kts
Fri, May 17, 2013     18:32 18:34 0.03 hrs 0.00 hrs 0.00 nm 0.00 gal 0.00 gal/hr 0.00 gal/nm 0 msl 0 kts
Fri, May 17, 2013     13:04 13:05 0.01 hrs 0.00 hrs 0.00 nm 0.00 gal 0.00 gal/hr 0.00 gal/nm 0 msl 0 kts
Wed, May 15, 2013     12:28 12:32 0.08 hrs 0.00 hrs 0.00 nm 0.00 gal 0.00 gal/hr 0.00 gal/nm 0 msl 0 kts
Tue, May 14, 2013     17:03 17:36 0.56 hrs 0.00 hrs 0.00 nm 0.00 gal 0.00 gal/hr 0.00 gal/nm 0 msl 0 kts
Tue, May 14, 2013     13:34 13:42 0.13 hrs 0.00 hrs 0.00 nm 0.00 gal 0.00 gal/hr 0.00 gal/nm 0 msl 0 kts
Tue, May 14, 2013     13:26 13:32 0.11 hrs 0.00 hrs 0.00 nm 0.00 gal 0.00 gal/hr 0.00 gal/nm 0 msl 0 kts
Tue, May 14, 2013     12:27 12:43 0.27 hrs 0.00 hrs 0.00 nm 0.00 gal 0.00 gal/hr 0.00 gal/nm 0 msl 0 kts
Sun, May 5, 2013     15:52 15:53 0.02 hrs 0.00 hrs 0.00 nm 0.00 gal 0.00 gal/hr 0.00 gal/nm 0 msl 0 kts
Tue, Apr 23, 2013     20:34 20:51 0.29 hrs 0.00 hrs 0.00 nm 0.00 gal 0.00 gal/hr 0.00 gal/nm 0 msl 0 kts
Tue, Apr 23, 2013     20:25 20:33 0.15 hrs 0.00 hrs 0.00 nm 0.00 gal 0.00 gal/hr 0.00 gal/nm 0 msl 0 kts
Tue, Apr 23, 2013     20:15 20:24 0.16 hrs 0.00 hrs 0.00 nm 0.00 gal 0.00 gal/hr 0.00 gal/nm 0 msl 0 kts
Tue, Apr 23, 2013     20:13 20:13 0.01 hrs 0.00 hrs 0.00 nm 0.00 gal 0.00 gal/hr 0.00 gal/nm 0 msl 0 kts
Tue, Apr 23, 2013     20:10 20:11 0.02 hrs 0.00 hrs 0.00 nm 0.00 gal 0.00 gal/hr 0.00 gal/nm 0 msl 0 kts
Tue, Apr 23, 2013     19:52 20:07 0.25 hrs 0.00 hrs 0.00 nm 0.00 gal 0.00 gal/hr 0.00 gal/nm 0 msl 0 kts
Mon, Apr 22, 2013     21:25 21:30 0.07 hrs 0.00 hrs 0.00 nm 0.00 gal 0.00 gal/hr 0.00 gal/nm 0 msl 0 kts
Mon, Apr 22, 2013     21:18 21:20 0.05 hrs 0.00 hrs 0.00 nm 0.00 gal 0.00 gal/hr 0.00 gal/nm 0 msl 0 kts
Mon, Apr 22, 2013     21:15 21:17 0.05 hrs 0.00 hrs 0.00 nm 0.00 gal 0.00 gal/hr 0.00 gal/nm 0 msl 0 kts
Mon, Apr 22, 2013     21:13 21:13 0.01 hrs 0.00 hrs 0.00 nm 0.00 gal 0.00 gal/hr 0.00 gal/nm 0 msl 0 kts
Mon, Apr 22, 2013     21:12 21:12 0 hrs 0.00 hrs 0.00 nm 0.00 gal 0.00 gal/hr 0.00 gal/nm 0 msl 0 kts
Mon, Apr 22, 2013     21:08 21:10 0.05 hrs 0.00 hrs 0.00 nm 0.00 gal 0.00 gal/hr 0.00 gal/nm 0 msl 0 kts
Mon, Apr 22, 2013     21:07 21:07 0.01 hrs 0.00 hrs 0.00 nm 0.00 gal 0.00 gal/hr 0.00 gal/nm 0 msl 0 kts
Mon, Apr 22, 2013     20:41 20:43 0.03 hrs 0.00 hrs 0.00 nm 0.00 gal 0.00 gal/hr 0.00 gal/nm 0 msl 0 kts
Thu, Apr 11, 2013     14:49 14:50 0.01 hrs 0.00 hrs 0.00 nm 0.00 gal 0.00 gal/hr 0.00 gal/nm 0 msl 0 kts
Thu, Apr 11, 2013     14:45 14:48 0.05 hrs 0.00 hrs 0.00 nm 0.00 gal 0.00 gal/hr 0.00 gal/nm 0 msl 0 kts
Thu, Apr 11, 2013     14:02 14:05 0.06 hrs 0.00 hrs 0.00 nm 0.00 gal 0.00 gal/hr 0.00 gal/nm 0 msl 0 kts
Thu, Apr 11, 2013     13:28 13:54 0.44 hrs 0.00 hrs 0.00 nm 0.00 gal 0.00 gal/hr 0.00 gal/nm 0 msl 0 kts
Thu, Apr 11, 2013     13:24 13:26 0.04 hrs 0.00 hrs 0.00 nm 0.00 gal 0.00 gal/hr 0.00 gal/nm 0 msl 0 kts
Thu, Apr 11, 2013     13:05 13:21 0.27 hrs 0.00 hrs 0.00 nm 0.00 gal 0.00 gal/hr 0.00 gal/nm 0 msl 0 kts
Thu, Apr 11, 2013     12:56 13:04 0.12 hrs 0.00 hrs 0.00 nm 0.00 gal 0.00 gal/hr 0.00 gal/nm 0 msl 0 kts
Thu, Apr 11, 2013     12:31 12:50 0.31 hrs 0.00 hrs 0.00 nm 0.00 gal 0.00 gal/hr 0.00 gal/nm 0 msl 0 kts
Wed, Apr 10, 2013 X34 X34 19:04 19:20 0.26 hrs 0.00 hrs 0.00 nm 0.00 gal 0.00 gal/hr 0.00 gal/nm 0 msl 0 kts
Wed, Apr 10, 2013     18:53 19:01 0.15 hrs 0.00 hrs 0.00 nm 0.00 gal 0.00 gal/hr 0.00 gal/nm 0 msl 0 kts
Wed, Apr 10, 2013     18:48 18:52 0.08 hrs 0.00 hrs 0.00 nm 0.00 gal 0.00 gal/hr 0.00 gal/nm 0 msl 0 kts
Wed, Apr 10, 2013 X34 X34 18:46 18:47 0.02 hrs 0.00 hrs 0.00 nm 0.00 gal 0.00 gal/hr 0.00 gal/nm 0 msl 0 kts
Wed, Apr 10, 2013 X34 X34 18:38 18:46 0.14 hrs 0.00 hrs 0.00 nm 0.00 gal 0.00 gal/hr 0.00 gal/nm 0 msl 0 kts
Wed, Apr 10, 2013     18:19 18:19 0 hrs 0.00 hrs 0.00 nm 0.00 gal 0.00 gal/hr 0.00 gal/nm 0 msl 0 kts
Wed, Apr 10, 2013     18:03 18:18 0.26 hrs 0.00 hrs 0.00 nm 0.00 gal 0.00 gal/hr 0.00 gal/nm 0 msl 0 kts
Wed, Apr 10, 2013     18:02 18:03 0.01 hrs 0.00 hrs 0.00 nm 0.00 gal 0.00 gal/hr 0.00 gal/nm 0 msl 0 kts
Wed, Apr 10, 2013     17:25 17:53 0.47 hrs 0.00 hrs 0.00 nm 0.00 gal 0.00 gal/hr 0.00 gal/nm 0 msl 0 kts
Wed, Apr 10, 2013     16:37 17:19 0.7 hrs 0.00 hrs 0.00 nm 0.00 gal 0.00 gal/hr 0.00 gal/nm 0 msl 0 kts
Wed, Apr 10, 2013     15:59 16:33 0.56 hrs 0.00 hrs 0.00 nm 0.00 gal 0.00 gal/hr 0.00 gal/nm 0 msl 0 kts
Wed, Apr 10, 2013 X34 X34 15:38 15:43 0.1 hrs 0.00 hrs 0.00 nm 0.00 gal 0.00 gal/hr 0.00 gal/nm 0 msl 0 kts
Wed, Apr 10, 2013     15:37 15:37 0.01 hrs 0.00 hrs 0.00 nm 0.00 gal 0.00 gal/hr 0.00 gal/nm 0 msl 0 kts
Wed, Apr 10, 2013 X34 X34 15:33 15:36 0.05 hrs 0.00 hrs 0.00 nm 0.00 gal 0.00 gal/hr 0.00 gal/nm 0 msl 0 kts
Wed, Apr 10, 2013 X34 X34 15:11 15:17 0.1 hrs 0.00 hrs 0.00 nm 0.00 gal 0.00 gal/hr 0.00 gal/nm 0 msl 0 kts
Wed, Apr 10, 2013 X34 X34 15:09 15:10 0.02 hrs 0.00 hrs 0.00 nm 0.00 gal 0.00 gal/hr 0.00 gal/nm 0 msl 0 kts
Wed, Apr 10, 2013     15:07 15:07 0 hrs 0.00 hrs 0.00 nm 0.00 gal 0.00 gal/hr 0.00 gal/nm 0 msl 0 kts
Wed, Apr 10, 2013 X34 X34 15:01 15:02 0.02 hrs 0.00 hrs 0.00 nm 0.00 gal 0.00 gal/hr 0.00 gal/nm 0 msl 0 kts
Wed, Apr 10, 2013 X34 X34 14:36 14:42 0.11 hrs 0.00 hrs 0.00 nm 0.00 gal 0.00 gal/hr 0.00 gal/nm 0 msl 0 kts
Tue, Apr 9, 2013     17:56 19:09 1.21 hrs 0.00 hrs 0.00 nm 0.00 gal 0.00 gal/hr 0.00 gal/nm 0 msl 0 kts
Tue, Apr 9, 2013     17:20 17:35 0.25 hrs 0.00 hrs 0.00 nm 0.00 gal 0.00 gal/hr 0.00 gal/nm 0 msl 0 kts
Tue, Apr 9, 2013     17:19 17:19 0.01 hrs 0.00 hrs 0.00 nm 0.00 gal 0.00 gal/hr 0.00 gal/nm 0 msl 0 kts
Tue, Apr 9, 2013     17:18 17:18 0.01 hrs 0.00 hrs 0.00 nm 0.00 gal 0.00 gal/hr 0.00 gal/nm 0 msl 0 kts
Tue, Apr 9, 2013 X34 X34 16:59 17:16 0.29 hrs 0.00 hrs 0.00 nm 0.00 gal 0.00 gal/hr 0.00 gal/nm 0 msl 0 kts
Tue, Apr 9, 2013 X34 X34 15:55 16:03 0.14 hrs 0.00 hrs 0.00 nm 0.00 gal 0.00 gal/hr 0.00 gal/nm 0 msl 0 kts
Tue, Apr 2, 2013     15:01 16:07 1.12 hrs 0.00 hrs 0.00 nm 0.00 gal 0.00 gal/hr 0.00 gal/nm 0 msl 0 kts
Tue, Apr 2, 2013     14:56 14:59 0.05 hrs 0.00 hrs 0.00 nm 0.00 gal 0.00 gal/hr 0.00 gal/nm 0 msl 0 kts
Tue, Apr 2, 2013     14:46 14:48 0.04 hrs 0.00 hrs 0.00 nm 0.00 gal 0.00 gal/hr 0.00 gal/nm 0 msl 0 kts
Tue, Apr 2, 2013     14:35 14:43 0.14 hrs 0.00 hrs 0.00 nm 0.00 gal 0.00 gal/hr 0.00 gal/nm 0 msl 0 kts
Tue, Apr 2, 2013     14:15 14:21 0.1 hrs 0.00 hrs 0.00 nm 0.00 gal 0.00 gal/hr 0.00 gal/nm 0 msl 0 kts
Mon, Apr 1, 2013     13:18 14:15 0.95 hrs 0.00 hrs 0.00 nm 0.00 gal 0.00 gal/hr 0.00 gal/nm 0 msl 0 kts
Mon, Apr 1, 2013     12:34 13:16 0.7 hrs 0.00 hrs 0.00 nm 0.00 gal 0.00 gal/hr 0.00 gal/nm 0 msl 0 kts
Sun, Mar 31, 2013 KHEF KHEF 20:25 20:30 0.09 hrs 0.00 hrs 0.00 nm 0.00 gal 0.00 gal/hr 0.00 gal/nm 0 msl 0 kts
Sun, Mar 31, 2013 KCPS KHEF 17:13 20:10 2.96 hrs 2.68 hrs 609.57 nm 51.20 gal 17.29 gal/hr 0.08 gal/nm 19128 msl 228 kts
Sun, Mar 31, 2013     17:00 17:01 0.01 hrs 0.00 hrs 0.00 nm 0.00 gal 0.00 gal/hr 0.00 gal/nm 0 msl 0 kts
Tue, Mar 26, 2013 KHEF KCPS 16:00 20:05 4.08 hrs 3.59 hrs 616.61 nm 68.30 gal 16.76 gal/hr 0.11 gal/nm 19994 msl 172 kts
Tue, Mar 26, 2013     15:37 15:38 0.01 hrs 0.00 hrs 0.00 nm 0.00 gal 0.00 gal/hr 0.00 gal/nm 0 msl 0 kts
Tue, Mar 26, 2013     15:31 15:36 0.08 hrs 0.00 hrs 0.00 nm 0.00 gal 0.00 gal/hr 0.00 gal/nm 0 msl 0 kts
Fri, Mar 22, 2013 KHEF KHEF 15:51 16:03 0.19 hrs 0.00 hrs 0.00 nm 0.60 gal 3.10 gal/hr 0.00 gal/nm 0 msl 0 kts
Sun, Mar 10, 2013 KCPS KHEF 17:44 21:02 3.3 hrs 3.03 hrs 620.68 nm 57.70 gal 17.50 gal/hr 0.09 gal/nm 21001 msl 205 kts
Sun, Mar 10, 2013 KCPS KCPS 17:34 17:34 0.01 hrs 0.00 hrs 0.00 nm 0.00 gal 0.00 gal/hr 0.00 gal/nm 0 msl 0 kts
Sun, Mar 3, 2013 KHEF KCPS 22:14 02:36 4.38 hrs 3.83 hrs 607.77 nm 69.90 gal 15.97 gal/hr 0.12 gal/nm 12009 msl 159 kts
Sun, Mar 3, 2013 KHEF KHEF 21:04 21:08 0.06 hrs 0.00 hrs 0.00 nm 0.00 gal 0.00 gal/hr 0.00 gal/nm 0 msl 0 kts
Sun, Mar 3, 2013     20:41 20:43 0.05 hrs 0.00 hrs 0.00 nm 0.00 gal 0.00 gal/hr 0.00 gal/nm 0 msl 0 kts
Sun, Feb 24, 2013     20:01 22:51 2.84 hrs 2.50 hrs 0.00 nm 50.90 gal 17.94 gal/hr 0.00 gal/nm 0 msl 242 kts
Sun, Feb 24, 2013     19:50 19:51 0.01 hrs 0.00 hrs 0.00 nm 0.00 gal 0.00 gal/hr 0.00 gal/nm 0 msl 0 kts
Fri, Feb 22, 2013     16:45 18:35 1.84 hrs 1.57 hrs 0.00 nm 32.40 gal 17.66 gal/hr 0.00 gal/nm 0 msl 206 kts
Fri, Feb 22, 2013     15:42 15:57 0.26 hrs 0.00 hrs 0.00 nm 0.00 gal 0.00 gal/hr 0.00 gal/nm 0 msl 0 kts
Tue, Feb 19, 2013     21:25 21:37 0.2 hrs 0.00 hrs 0.00 nm 0.00 gal 0.00 gal/hr 0.00 gal/nm 0 msl 0 kts
Tue, Feb 19, 2013     17:44 20:23 2.66 hrs 2.38 hrs 0.00 nm 43.40 gal 16.35 gal/hr 0.00 gal/nm 0 msl 133 kts
Tue, Feb 19, 2013     17:30 17:31 0.02 hrs 0.00 hrs 0.00 nm 0.00 gal 0.00 gal/hr 0.00 gal/nm 0 msl 0 kts
Mon, Feb 18, 2013     15:41 20:28 4.78 hrs 4.20 hrs 0.00 nm 73.50 gal 15.37 gal/hr 0.00 gal/nm 0 msl 144 kts
Mon, Feb 18, 2013     15:24 15:24 0.01 hrs 0.00 hrs 0.00 nm 0.00 gal 0.00 gal/hr 0.00 gal/nm 0 msl 0 kts
Mon, Feb 18, 2013     15:13 15:13 0.01 hrs 0.00 hrs 0.00 nm 0.00 gal 0.00 gal/hr 0.00 gal/nm 0 msl 0 kts
Thu, Feb 14, 2013     15:21 18:33 3.2 hrs 2.72 hrs 0.00 nm 52.00 gal 16.25 gal/hr 0.00 gal/nm 0 msl 226 kts
Thu, Feb 14, 2013     14:51 14:52 0.02 hrs 0.00 hrs 0.00 nm 0.00 gal 0.00 gal/hr 0.00 gal/nm 0 msl 0 kts
Wed, Feb 13, 2013     00:08 02:15 2.11 hrs 1.40 hrs 0.00 nm 26.00 gal 12.32 gal/hr 0.00 gal/nm 0 msl 146 kts
Tue, Feb 12, 2013     23:56 23:57 0.03 hrs 0.00 hrs 0.00 nm 0.00 gal 0.00 gal/hr 0.00 gal/nm 0 msl 0 kts
Mon, Feb 11, 2013     21:53 23:13 1.34 hrs 0.91 hrs 0.00 nm 18.10 gal 13.51 gal/hr 0.00 gal/nm 0 msl 143 kts
Mon, Feb 11, 2013     21:44 21:44 0.01 hrs 0.00 hrs 0.00 nm 0.00 gal 0.00 gal/hr 0.00 gal/nm 0 msl 0 kts
Thu, Feb 7, 2013     21:20 01:35 4.26 hrs 3.88 hrs 0.00 nm 71.40 gal 16.75 gal/hr 0.00 gal/nm 0 msl 156 kts
Thu, Feb 7, 2013     20:57 20:57 0 hrs 0.00 hrs 0.00 nm 0.00 gal 0.00 gal/hr 0.00 gal/nm 0 msl 0 kts
Thu, Feb 7, 2013     20:46 20:47 0.01 hrs 0.00 hrs 0.00 nm 0.00 gal 0.00 gal/hr 0.00 gal/nm 0 msl 0 kts
Thu, Feb 7, 2013     20:42 20:43 0.02 hrs 0.00 hrs 0.00 nm 0.00 gal 0.00 gal/hr 0.00 gal/nm 0 msl 0 kts
Thu, Feb 7, 2013     20:40 20:41 0.01 hrs 0.00 hrs 0.00 nm 0.00 gal 0.00 gal/hr 0.00 gal/nm 0 msl 0 kts
Wed, Jan 30, 2013     18:24 18:37 0.22 hrs 0.00 hrs 0.00 nm 0.80 gal 3.58 gal/hr 0.00 gal/nm 0 msl 0 kts
Fri, Jan 25, 2013     17:03 17:06 0.06 hrs 0.00 hrs 0.00 nm 0.00 gal 0.00 gal/hr 0.00 gal/nm 0 msl 0 kts
Tue, Jan 15, 2013     12:24 12:38 0.24 hrs 0.00 hrs 0.00 nm 0.00 gal 0.00 gal/hr 0.00 gal/nm 0 msl 0 kts
Mon, Jan 14, 2013     16:07 19:27 3.34 hrs 0.00 hrs 0.00 nm 0.00 gal 0.00 gal/hr 0.00 gal/nm 0 msl 0 kts
Mon, Jan 7, 2013     14:17 14:25 0.14 hrs 0.00 hrs 0.00 nm 0.60 gal 4.29 gal/hr 0.00 gal/nm 0 msl 0 kts
Mon, Dec 31, 2012     16:20 18:23 2.05 hrs 1.58 hrs 0.00 nm 23.20 gal 11.31 gal/hr 0.00 gal/nm 0 msl 123 kts
Mon, Dec 31, 2012     15:50 16:00 0.18 hrs 0.00 hrs 0.00 nm 0.00 gal 0.00 gal/hr 0.00 gal/nm 0 msl 0 kts
Wed, Dec 12, 2012     15:11 17:31 2.34 hrs 1.95 hrs 0.00 nm 36.20 gal 15.49 gal/hr 0.00 gal/nm 0 msl 166 kts
Wed, Dec 12, 2012     15:06 15:06 0 hrs 0.00 hrs 0.00 nm 0.00 gal 0.00 gal/hr 0.00 gal/nm 0 msl 0 kts
Mon, Dec 10, 2012     18:29 20:41 2.2 hrs 1.80 hrs 0.00 nm 35.20 gal 16.02 gal/hr 0.00 gal/nm 0 msl 192 kts
Mon, Dec 10, 2012     18:00 18:03 0.06 hrs 0.00 hrs 0.00 nm 0.00 gal 0.00 gal/hr 0.00 gal/nm 0 msl 0 kts
Sun, Nov 18, 2012     17:08 20:19 3.17 hrs 3.00 hrs 0.00 nm 58.20 gal 18.34 gal/hr 0.00 gal/nm 0 msl 206 kts
Fri, Nov 16, 2012     17:33 20:05 2.52 hrs 2.34 hrs 0.00 nm 44.00 gal 17.44 gal/hr 0.00 gal/nm 0 msl 176 kts
Fri, Nov 16, 2012     17:32 17:33 0.01 hrs 0.00 hrs 0.00 nm 0.00 gal 0.00 gal/hr 0.00 gal/nm 0 msl 0 kts
Fri, Nov 16, 2012     17:28 17:29 0 hrs 0.00 hrs 0.00 nm 0.00 gal 0.00 gal/hr 0.00 gal/nm 0 msl 0 kts
Fri, Nov 16, 2012     17:21 17:22 0.01 hrs 0.00 hrs 0.00 nm 0.00 gal 0.00 gal/hr 0.00 gal/nm 0 msl 0 kts
Mon, Nov 12, 2012     18:11 21:08 2.94 hrs 2.71 hrs 0.00 nm 52.40 gal 17.81 gal/hr 0.00 gal/nm 0 msl 154 kts
Sun, Nov 11, 2012     23:09 23:10 0.02 hrs 0.00 hrs 0.00 nm 0.00 gal 0.00 gal/hr 0.00 gal/nm 0 msl 0 kts
Fri, Nov 9, 2012     20:13 00:00 3.78 hrs 3.53 hrs 0.00 nm 67.90 gal 17.96 gal/hr 0.00 gal/nm 0 msl 174 kts
Sat, Nov 3, 2012     16:38 17:29 0.85 hrs 0.55 hrs 0.00 nm 7.00 gal 8.20 gal/hr 0.00 gal/nm 0 msl 120 kts
Sat, Nov 3, 2012     13:14 15:18 2.07 hrs 1.73 hrs 0.00 nm 35.20 gal 16.99 gal/hr 0.00 gal/nm 0 msl 206 kts
Sat, Nov 3, 2012     12:49 12:51 0.03 hrs 0.00 hrs 0.00 nm 0.00 gal 0.00 gal/hr 0.00 gal/nm 0 msl 0 kts
Fri, Nov 2, 2012     15:43 15:50 0.12 hrs 0.00 hrs 0.00 nm 0.60 gal 5.22 gal/hr 0.00 gal/nm 0 msl 0 kts
Fri, Nov 2, 2012     14:56 15:00 0.08 hrs 0.00 hrs 0.00 nm 0.20 gal 2.55 gal/hr 0.00 gal/nm 0 msl 0 kts
Thu, Nov 1, 2012     17:11 17:11 0 hrs 0.00 hrs 0.00 nm 0.00 gal 0.00 gal/hr 0.00 gal/nm 0 msl 0 kts
Thu, Nov 1, 2012     15:30 15:30 0.01 hrs 0.00 hrs 0.00 nm 0.00 gal 0.00 gal/hr 0.00 gal/nm 0 msl 0 kts
Thu, Nov 1, 2012     13:59 14:00 0.03 hrs 0.00 hrs 0.00 nm 0.00 gal 0.00 gal/hr 0.00 gal/nm 0 msl 0 kts
Thu, Nov 1, 2012     11:06 13:49 2.72 hrs 2.36 hrs 0.00 nm 49.20 gal 18.09 gal/hr 0.00 gal/nm 0 msl 172 kts
Sun, Oct 28, 2012     16:55 20:23 3.46 hrs 3.17 hrs 0.00 nm 59.90 gal 17.34 gal/hr 0.00 gal/nm 0 msl 194 kts
Sun, Oct 28, 2012     16:33 16:34 0.01 hrs 0.00 hrs 0.00 nm 0.00 gal 0.00 gal/hr 0.00 gal/nm 0 msl 0 kts
Thu, Oct 25, 2012     19:50 23:52 4.03 hrs 3.65 hrs 0.00 nm 65.50 gal 16.27 gal/hr 0.00 gal/nm 0 msl 164 kts
Thu, Oct 25, 2012     19:42 19:42 0.01 hrs 0.00 hrs 0.00 nm 0.00 gal 0.00 gal/hr 0.00 gal/nm 0 msl 0 kts
Thu, Oct 25, 2012     17:53 17:53 0 hrs 0.00 hrs 0.00 nm 0.00 gal 0.00 gal/hr 0.00 gal/nm 0 msl 0 kts
Wed, Oct 24, 2012     13:44 13:54 0.17 hrs 0.00 hrs 0.00 nm 0.60 gal 3.53 gal/hr 0.00 gal/nm 0 msl 0 kts
Thu, Oct 18, 2012     23:33 23:37 0.07 hrs 0.00 hrs 0.00 nm 0.40 gal 5.58 gal/hr 0.00 gal/nm 0 msl 0 kts
Thu, Oct 18, 2012     20:52 21:02 0.18 hrs 0.00 hrs 0.00 nm 0.80 gal 4.40 gal/hr 0.00 gal/nm 0 msl 0 kts
Thu, Oct 18, 2012     12:03 12:52 0.8 hrs 0.00 hrs 0.00 nm 0.00 gal 0.00 gal/hr 0.00 gal/nm 0 msl 0 kts
Fri, Oct 12, 2012     18:08 18:16 0.14 hrs 0.00 hrs 0.00 nm 0.00 gal 0.00 gal/hr 0.00 gal/nm 0 msl 0 kts
Fri, Oct 12, 2012     15:08 15:15 0.12 hrs 0.00 hrs 0.00 nm 0.00 gal 0.00 gal/hr 0.00 gal/nm 0 msl 0 kts
Thu, Oct 11, 2012     17:16 17:28 0.2 hrs 0.00 hrs 0.00 nm 0.00 gal 0.00 gal/hr 0.00 gal/nm 0 msl 0 kts
Thu, Oct 11, 2012     15:29 15:30 0.01 hrs 0.00 hrs 0.00 nm 0.00 gal 0.00 gal/hr 0.00 gal/nm 0 msl 0 kts
Wed, Oct 10, 2012     14:21 14:25 0.06 hrs 0.00 hrs 0.00 nm 0.00 gal 0.00 gal/hr 0.00 gal/nm 0 msl 0 kts
Tue, Oct 9, 2012     11:38 11:57 0.32 hrs 0.00 hrs 0.00 nm 1.10 gal 3.44 gal/hr 0.00 gal/nm 0 msl 0 kts
Mon, Oct 8, 2012     16:38 19:46 3.12 hrs 2.78 hrs 0.00 nm 44.20 gal 14.16 gal/hr 0.00 gal/nm 0 msl 219 kts
Mon, Oct 8, 2012     16:25 16:26 0.01 hrs 0.00 hrs 0.00 nm 0.00 gal 0.00 gal/hr 0.00 gal/nm 0 msl 0 kts
Sun, Oct 7, 2012     20:06 20:06 0 hrs 0.00 hrs 0.00 nm 0.00 gal 0.00 gal/hr 0.00 gal/nm 0 msl 0 kts
Fri, Sep 28, 2012     22:58 22:59 0.03 hrs 0.00 hrs 0.00 nm 0.00 gal 0.00 gal/hr 0.00 gal/nm 0 msl 0 kts
Fri, Sep 28, 2012     22:54 22:57 0.05 hrs 0.00 hrs 0.00 nm 0.00 gal 0.00 gal/hr 0.00 gal/nm 0 msl 0 kts
          171.08 hrs 106.72 hrs 9858.82 nm 2015.60 gal